KAFO/AFO METAR and TAF weather

Enter ICAO airport designator
Station Type Date Time Source
KAFO METAR 2020/07/04 08:35 UTC NOAA

KAFO 040835Z AUTO 00000KT 10SM SCT120 09/06 A3021 RMK AO2


Station Type Date Time Source
KAFO Decoded METAR 2020/07/04 08:35 UTC NOAA

Station name not available
Jul 04, 2020 - 04:35 AM EDT / 2020.07.04 0835 UTC
Wind: Calm:0
Visibility: 10 mile(s):0
Sky conditions: partly cloudy
Temperature: 48 F (9 C)
Dew Point: 42 F (6 C)
Relative Humidity: 81%
Pressure (altimeter): 30.21 in. Hg (1023 hPa)
ob: KAFO 040835Z AUTO 00000KT 10SM SCT120 09/06 A3021 RMK AO2
cycle: 8

Station Type Date Time Source
KAFO TAF UTC NOAA

Error!

Example: see airport list